Time;durP1;ratioP1;P1;durP2;ratioP2;P2;SDS_P1;SDS_P2;PMS_P1;PMS_P2;Temp;Humidity;BMP_temperature;BMP_pressure;BME280_temperature;BME280_humidity;BME280_pressure;Samples;Min_cycle;Max_cycle;Signal;HPM_P1;HPM_P2
2022/12/02 00:01:38;;;;;;;1999.90;999.90;;;5.50;99.90;;;;;;5051896;28;20827;-69
2022/12/02 00:04:30;;;;;;;1999.90;999.90;;;5.50;99.90;;;;;;5051753;28;20490;-69
2022/12/02 00:06:58;;;;;;;1999.90;999.90;;;5.50;99.90;;;;;;5047848;28;21047;-68
2022/12/02 00:09:32;;;;;;;1999.90;999.90;;;5.50;99.90;;;;;;5051674;28;20414;-69
2022/12/02 00:11:59;;;;;;;1999.90;999.90;;;5.40;99.90;;;;;;5051561;28;20870;-69
2022/12/02 00:14:30;;;;;;;1999.90;999.90;;;5.40;99.90;;;;;;5051522;28;20950;-70
2022/12/02 00:16:56;;;;;;;1999.90;999.90;;;5.50;99.90;;;;;;5051514;28;20418;-69
2022/12/02 00:19:22;;;;;;;1999.90;999.90;;;5.50;99.90;;;;;;5051846;28;20410;-69
2022/12/02 00:21:49;;;;;;;1999.90;999.90;;;5.50;99.90;;;;;;5051576;28;20265;-69
2022/12/02 00:24:16;;;;;;;1999.90;999.90;;;5.50;99.90;;;;;;5051538;28;20414;-69
2022/12/02 00:26:42;;;;;;;1999.90;999.90;;;5.50;99.90;;;;;;5051233;28;20595;-70
2022/12/02 00:29:07;;;;;;;1999.90;999.90;;;5.40;99.90;;;;;;5051436;28;20882;-70
2022/12/02 00:31:33;;;;;;;1999.90;999.90;;;5.40;99.90;;;;;;5051500;28;20541;-69
2022/12/02 00:33:59;;;;;;;1999.90;999.90;;;5.40;99.90;;;;;;5051392;28;20223;-69
2022/12/02 00:36:26;;;;;;;1999.90;999.90;;;5.40;99.90;;;;;;5054390;28;20508;-69
2022/12/02 00:38:53;;;;;;;1999.90;999.90;;;5.40;99.90;;;;;;5055115;28;20914;-69
2022/12/02 00:41:18;;;;;;;1999.90;999.90;;;5.40;99.90;;;;;;5055281;28;20426;-69
2022/12/02 00:46:31;;;;;;;1999.90;999.90;;;5.50;99.90;;;;;;5055233;28;20256;-69
2022/12/02 00:48:58;;;;;;;1999.90;999.90;;;5.50;99.90;;;;;;5055047;28;20774;-69
2022/12/02 00:51:24;;;;;;;1999.90;999.90;;;5.50;99.90;;;;;;5055182;28;20782;-70
2022/12/02 00:53:49;;;;;;;1999.90;999.90;;;5.40;99.90;;;;;;5054925;28;20425;-69
2022/12/02 00:56:15;;;;;;;1999.90;999.90;;;5.40;99.90;;;;;;5054986;28;20172;-69
2022/12/02 00:58:41;;;;;;;1999.90;999.90;;;5.40;99.90;;;;;;5054743;28;20171;-69
2022/12/02 01:01:07;;;;;;;1999.90;999.90;;;5.40;99.90;;;;;;5055019;28;20266;-70
2022/12/02 01:03:32;;;;;;;1999.90;999.90;;;5.40;99.90;;;;;;5054658;28;20988;-70
2022/12/02 01:05:58;;;;;;;1999.90;999.90;;;5.40;99.90;;;;;;5054514;28;20643;-70
2022/12/02 01:08:26;;;;;;;1999.90;999.90;;;5.40;99.90;;;;;;5054679;28;20630;-69
2022/12/02 01:10:52;;;;;;;1999.90;999.90;;;5.30;99.90;;;;;;5054733;28;20171;-68
2022/12/02 01:13:18;;;;;;;1999.90;999.90;;;5.30;99.90;;;;;;5054563;28;20536;-69
2022/12/02 01:15:43;;;;;;;1999.90;999.90;;;5.30;99.90;;;;;;5054862;28;20550;-69
2022/12/02 01:18:09;;;;;;;1999.90;999.90;;;5.30;99.90;;;;;;5054463;28;20186;-70
2022/12/02 01:20:34;;;;;;;1999.90;999.90;;;5.20;99.90;;;;;;5054721;28;20571;-69
2022/12/02 01:23:00;;;;;;;1999.90;999.90;;;5.20;99.90;;;;;;5054589;28;20282;-69
2022/12/02 01:25:26;;;;;;;1999.90;999.90;;;5.20;99.90;;;;;;5054575;28;20183;-69
2022/12/02 01:27:51;;;;;;;1999.90;999.90;;;5.20;99.90;;;;;;5054258;28;20210;-69
2022/12/02 01:30:17;;;;;;;1999.90;999.90;;;5.10;99.90;;;;;;5054594;28;20517;-69
2022/12/02 01:32:42;;;;;;;1999.90;999.90;;;5.10;99.90;;;;;;5054432;28;20278;-69
2022/12/02 01:35:08;;;;;;;1999.90;999.90;;;5.10;99.90;;;;;;5054624;28;20179;-70
2022/12/02 01:37:34;;;;;;;1999.90;999.90;;;5.10;99.90;;;;;;5054293;28;20557;-69
2022/12/02 01:39:59;;;;;;;1999.90;999.90;;;5.10;99.90;;;;;;5054300;28;20250;-70
2022/12/02 01:42:25;;;;;;;1999.90;999.90;;;5.00;99.90;;;;;;5053823;28;20222;-70
2022/12/02 01:44:51;;;;;;;1999.90;999.90;;;5.00;99.90;;;;;;5053981;28;20179;-70
2022/12/02 01:47:17;;;;;;;1999.90;999.90;;;5.00;99.90;;;;;;5053504;28;20572;-70
2022/12/02 01:49:42;;;;;;;1999.90;999.90;;;5.10;99.90;;;;;;5053748;28;20410;-70
2022/12/02 01:52:08;;;;;;;1999.90;999.90;;;5.10;99.90;;;;;;5053791;28;20187;-71
2022/12/02 01:54:34;;;;;;;1999.90;999.90;;;5.10;99.90;;;;;;5053871;28;20179;-70
2022/12/02 01:57:00;;;;;;;1999.90;999.90;;;5.00;99.90;;;;;;5053400;28;20168;-70
2022/12/02 01:59:26;;;;;;;1999.90;999.90;;;5.00;99.90;;;;;;5053616;28;20414;-70
2022/12/02 02:01:52;;;;;;;1999.90;999.90;;;5.00;99.90;;;;;;5070393;22;20407;-68
2022/12/02 02:04:18;;;;;;;1999.90;999.90;;;5.00;99.90;;;;;;5074823;28;20428;-69
2022/12/02 02:06:46;;;;;;;1999.90;999.90;;;5.00;99.90;;;;;;5076004;28;20211;-68
2022/12/02 02:09:12;;;;;;;1999.90;999.90;;;5.10;99.90;;;;;;5073400;28;20499;-68
2022/12/02 02:11:40;;;;;;;1999.90;999.90;;;5.10;99.90;;;;;;5073469;28;20401;-68
2022/12/02 02:14:07;;;;;;;1999.90;999.90;;;5.10;99.90;;;;;;5073701;28;20498;-68
2022/12/02 02:16:33;;;;;;;1999.90;999.90;;;5.10;99.90;;;;;;5073368;28;20422;-69
2022/12/02 02:19:00;;;;;;;1999.90;999.90;;;5.10;99.90;;;;;;5076658;28;20815;-69
2022/12/02 02:21:39;;;;;;;1999.90;999.90;;;5.10;99.90;;;;;;5073527;28;20167;-67
2022/12/02 02:24:05;;;;;;;1999.90;999.90;;;5.10;99.90;;;;;;5076127;28;20421;-68
2022/12/02 02:26:31;;;;;;;1999.90;999.90;;;5.10;99.90;;;;;;5072917;28;20460;-68
2022/12/02 02:28:57;;;;;;;1999.90;999.90;;;5.00;99.90;;;;;;5072937;28;20419;-68
2022/12/02 02:31:22;;;;;;;1999.90;999.90;;;5.00;99.90;;;;;;5075701;28;20522;-69
2022/12/02 02:33:49;;;;;;;1999.90;999.90;;;5.00;99.90;;;;;;5074353;28;20190;-68
2022/12/02 02:36:14;;;;;;;1999.90;999.90;;;5.00;99.90;;;;;;5056663;28;20175;-68
2022/12/02 02:38:40;;;;;;;1999.90;999.90;;;5.00;99.90;;;;;;5072712;28;20409;-68
2022/12/02 02:41:06;;;;;;;1999.90;999.90;;;4.90;99.90;;;;;;5054957;28;20273;-68
2022/12/02 02:43:33;;;;;;;1999.90;999.90;;;4.90;99.90;;;;;;5072901;28;20206;-68
2022/12/02 02:46:00;;;;;;;1999.90;999.90;;;4.90;99.90;;;;;;5072717;28;20524;-68
2022/12/02 02:48:26;;;;;;;1999.90;999.90;;;4.90;99.90;;;;;;5072880;28;20405;-68
2022/12/02 02:50:53;;;;;;;1999.90;999.90;;;5.00;99.90;;;;;;5072778;28;20415;-68
2022/12/02 02:53:22;;;;;;;1999.90;999.90;;;5.00;99.90;;;;;;5072635;28;20429;-68
2022/12/02 02:55:47;;;;;;;1999.90;999.90;;;5.00;99.90;;;;;;5073746;28;20526;-69
2022/12/02 02:58:13;;;;;;;1999.90;999.90;;;5.10;99.90;;;;;;5074446;28;20429;-69
2022/12/02 03:00:44;;;;;;;1999.90;999.90;;;5.10;99.90;;;;;;5075241;28;20163;-69
2022/12/02 03:03:12;;;;;;;1999.90;999.90;;;5.10;99.90;;;;;;5073190;28;20206;-68
2022/12/02 03:05:39;;;;;;;1999.90;999.90;;;5.10;99.90;;;;;;5072232;28;20413;-68
2022/12/02 03:08:06;;;;;;;1999.90;999.90;;;5.00;99.90;;;;;;5072715;28;20458;-68
2022/12/02 03:10:32;;;;;;;1999.90;999.90;;;5.10;99.90;;;;;;5072488;28;20406;-68
2022/12/02 03:12:58;;;;;;;1999.90;999.90;;;5.00;99.90;;;;;;5073130;28;20434;-69
2022/12/02 03:15:26;;;;;;;1999.90;999.90;;;5.10;99.90;;;;;;5074795;28;20408;-68
2022/12/02 03:17:52;;;;;;;1999.90;999.90;;;5.10;99.90;;;;;;5072234;28;20408;-68
2022/12/02 03:20:18;;;;;;;1999.90;999.90;;;5.10;99.90;;;;;;5072236;28;20409;-68
2022/12/02 03:22:44;;;;;;;1999.90;999.90;;;5.10;99.90;;;;;;5073626;28;20465;-68
2022/12/02 03:25:10;;;;;;;1999.90;999.90;;;5.10;99.90;;;;;;5073013;28;20439;-69
2022/12/02 03:27:36;;;;;;;1999.90;999.90;;;5.10;99.90;;;;;;5073310;28;20237;-68
2022/12/02 03:30:02;;;;;;;1999.90;999.90;;;5.20;99.90;;;;;;5072219;28;20436;-68
2022/12/02 03:32:28;;;;;;;1999.90;999.90;;;5.10;99.90;;;;;;5072656;28;20616;-68
2022/12/02 03:34:54;;;;;;;1999.90;999.90;;;5.20;99.90;;;;;;5072113;28;20409;-68
2022/12/02 03:37:21;;;;;;;1999.90;999.90;;;5.00;99.90;;;;;;5072000;28;20415;-68
2022/12/02 03:39:47;;;;;;;1999.90;999.90;;;5.00;99.90;;;;;;5072026;28;20635;-68
2022/12/02 03:42:14;;;;;;;1999.90;999.90;;;5.00;99.90;;;;;;5071955;28;20429;-68
2022/12/02 03:44:40;;;;;;;1999.90;999.90;;;4.90;99.90;;;;;;5072007;28;20504;-68
2022/12/02 03:47:06;;;;;;;1999.90;999.90;;;4.90;99.90;;;;;;5071686;28;20445;-68
2022/12/02 03:49:33;;;;;;;1999.90;999.90;;;5.00;99.90;;;;;;5074196;28;20409;-68
2022/12/02 03:51:59;;;;;;;1999.90;999.90;;;4.90;99.90;;;;;;5073103;28;20402;-69
2022/12/02 03:54:25;;;;;;;1999.90;999.90;;;5.00;99.90;;;;;;5071825;28;20421;-68
2022/12/02 03:56:51;;;;;;;1999.90;999.90;;;5.00;99.90;;;;;;5072420;28;20409;-68
2022/12/02 03:59:22;;;;;;;1999.90;999.90;;;4.90;99.90;;;;;;5072163;28;20416;-68
2022/12/02 04:01:48;;;;;;;1999.90;999.90;;;4.90;99.90;;;;;;5072649;28;20484;-69
2022/12/02 04:04:14;;;;;;;1999.90;999.90;;;5.00;99.90;;;;;;5073805;28;20842;-68
2022/12/02 04:06:39;;;;;;;1999.90;999.90;;;4.90;99.90;;;;;;5071883;28;20282;-67
2022/12/02 04:09:05;;;;;;;1999.90;999.90;;;4.90;99.90;;;;;;5072780;28;20171;-68
2022/12/02 04:11:31;;;;;;;1999.90;999.90;;;4.90;99.90;;;;;;5075826;28;20168;-68
2022/12/02 04:13:56;;;;;;;1999.90;999.90;;;4.90;99.90;;;;;;5078227;28;20273;-68
2022/12/02 04:16:22;;;;;;;1999.90;999.90;;;4.90;99.90;;;;;;5076695;28;20163;-69
2022/12/02 04:18:47;;;;;;;1999.90;999.90;;;4.90;99.90;;;;;;5076374;28;20171;-68
2022/12/02 04:21:13;;;;;;;1999.90;999.90;;;4.90;99.90;;;;;;5076386;28;20167;-68
2022/12/02 04:23:39;;;;;;;1999.90;999.90;;;5.00;99.90;;;;;;5075526;28;20277;-68
2022/12/02 04:26:05;;;;;;;1999.90;999.90;;;5.00;99.90;;;;;;5075382;28;20223;-68
2022/12/02 04:28:30;;;;;;;1999.90;999.90;;;5.00;99.90;;;;;;5075324;28;20896;-68
2022/12/02 04:30:56;;;;;;;1999.90;999.90;;;5.00;99.90;;;;;;5075427;28;20687;-68
2022/12/02 04:33:22;;;;;;;1999.90;999.90;;;5.00;99.90;;;;;;5075342;28;20183;-68
2022/12/02 04:35:47;;;;;;;1999.90;999.90;;;5.10;99.90;;;;;;5077111;28;20171;-69
2022/12/02 04:38:13;;;;;;;1999.90;999.90;;;5.10;99.90;;;;;;5078153;28;20163;-68
2022/12/02 04:40:39;;;;;;;1999.90;999.90;;;5.10;99.90;;;;;;5079394;28;20174;-69
2022/12/02 04:43:04;;;;;;;1999.90;999.90;;;5.10;99.90;;;;;;5078503;28;20269;-69
2022/12/02 04:45:30;;;;;;;1999.90;999.90;;;5.20;99.90;;;;;;5075436;28;20467;-68
2022/12/02 04:47:56;;;;;;;1999.90;999.90;;;5.10;99.90;;;;;;5076043;28;20485;-69
2022/12/02 04:50:21;;;;;;;1999.90;999.90;;;5.10;99.90;;;;;;5076559;28;20181;-69
2022/12/02 04:52:47;;;;;;;1999.90;999.90;;;5.10;99.90;;;;;;5077470;28;20187;-69
2022/12/02 04:55:12;;;;;;;1999.90;999.90;;;5.00;99.90;;;;;;5079334;28;20170;-69
2022/12/02 04:57:38;;;;;;;1999.90;999.90;;;5.00;99.90;;;;;;5078202;28;20551;-68
2022/12/02 05:00:05;;;;;;;1999.90;999.90;;;5.00;99.90;;;;;;5077178;28;20171;-69
2022/12/02 05:02:30;;;;;;;1999.90;999.90;;;5.00;99.90;;;;;;5077301;28;20207;-68
2022/12/02 05:04:56;;;;;;;1999.90;999.90;;;5.00;99.90;;;;;;5076956;28;20420;-69
2022/12/02 05:07:22;;;;;;;1999.90;999.90;;;5.00;99.90;;;;;;5077642;28;20598;-69
2022/12/02 05:09:47;;;;;;;1999.90;999.90;;;5.00;99.90;;;;;;5074839;28;20163;-68
2022/12/02 05:12:13;;;;;;;1999.90;999.90;;;5.00;99.90;;;;;;5074556;28;20179;-68
2022/12/02 05:14:38;;;;;;;1999.90;999.90;;;5.10;99.90;;;;;;5056885;28;20163;-68
2022/12/02 05:17:04;;;;;;;1999.90;999.90;;;5.00;99.90;;;;;;5075509;28;20167;-69
2022/12/02 05:19:29;;;;;;;1999.90;999.90;;;4.90;99.90;;;;;;5076063;28;20651;-69
2022/12/02 05:21:55;;;;;;;1999.90;999.90;;;4.90;99.90;;;;;;5074133;28;20178;-68
2022/12/02 05:24:21;;;;;;;1999.90;999.90;;;4.90;99.90;;;;;;5076983;28;20229;-68
2022/12/02 05:26:46;;;;;;;1999.90;999.90;;;4.90;99.90;;;;;;5074131;28;20243;-68
2022/12/02 05:29:12;;;;;;;1999.90;999.90;;;4.90;99.90;;;;;;5074236;28;20261;-67
2022/12/02 05:31:37;;;;;;;1999.90;999.90;;;4.90;99.90;;;;;;5074311;28;20163;-68
2022/12/02 05:34:03;;;;;;;1999.90;999.90;;;4.90;99.90;;;;;;5056170;28;20187;-68
2022/12/02 05:36:29;;;;;;;1999.90;999.90;;;5.00;99.90;;;;;;5078570;28;20174;-69
2022/12/02 05:38:54;;;;;;;1999.90;999.90;;;5.00;99.90;;;;;;5078150;28;20171;-68
2022/12/02 05:41:20;;;;;;;1999.90;999.90;;;4.90;99.90;;;;;;5075399;28;20175;-68
2022/12/02 05:43:45;;;;;;;1999.90;999.90;;;4.90;99.90;;;;;;5075932;28;20199;-68
2022/12/02 05:46:16;;;;;;;1999.90;999.90;;;5.00;99.90;;;;;;5073826;28;20582;-68
2022/12/02 05:48:43;;;;;;;1999.90;999.90;;;5.00;99.90;;;;;;5074130;28;20288;-68
2022/12/02 05:51:17;;;;;;;1999.90;999.90;;;5.00;99.90;;;;;;5075065;28;20464;-69
2022/12/02 05:53:44;;;;;;;1999.90;999.90;;;5.00;99.90;;;;;;5075962;28;20949;-68
2022/12/02 05:56:17;;;;;;;1999.90;999.90;;;5.00;99.90;;;;;;5076388;28;20397;-67
2022/12/02 05:58:42;;;;;;;1999.90;999.90;;;5.00;99.90;;;;;;5073753;28;20408;-68
2022/12/02 06:01:29;;;;;;;1999.90;999.90;;;4.90;99.90;;;;;;5075115;28;20492;-69
2022/12/02 06:03:54;;;;;;;1999.90;999.90;;;5.00;99.90;;;;;;5073853;28;20739;-68
2022/12/02 06:06:28;;;;;;;1999.90;999.90;;;5.00;99.90;;;;;;5073465;28;20444;-68
2022/12/02 06:08:55;;;;;;;1999.90;999.90;;;5.10;99.90;;;;;;5073746;28;20193;-67
2022/12/02 06:11:27;;;;;;;1999.90;999.90;;;5.10;99.90;;;;;;5075205;28;21080;-69
2022/12/02 06:14:00;;;;;;;1999.90;999.90;;;5.10;99.90;;;;;;5077081;28;20948;-69
2022/12/02 06:16:29;;;;;;;1999.90;999.90;;;5.10;99.90;;;;;;5074556;28;20394;-69
2022/12/02 06:18:55;;;;;;;1999.90;999.90;;;5.00;99.90;;;;;;5073672;28;20397;-68
2022/12/02 06:21:22;;;;;;;1999.90;999.90;;;4.90;99.90;;;;;;5073228;28;20480;-68
2022/12/02 06:23:54;;;;;;;1999.90;999.90;;;4.90;99.90;;;;;;5074672;28;20494;-68
2022/12/02 06:26:20;;;;;;;1999.90;999.90;;;5.00;99.90;;;;;;5073095;28;20445;-68
2022/12/02 06:29:15;;;;;;;1999.90;999.90;;;4.90;99.90;;;;;;5073289;28;20493;-68
2022/12/02 06:31:42;;;;;;;1999.90;999.90;;;4.90;99.90;;;;;;5074931;28;20401;-68
2022/12/02 06:34:38;;;;;;;1999.90;999.90;;;4.90;99.90;;;;;;5072144;28;20440;-68
2022/12/02 06:37:13;;;;;;;1999.90;999.90;;;4.90;99.90;;;;;;5071842;28;20453;-68
2022/12/02 06:39:39;;;;;;;1999.90;999.90;;;5.00;99.90;;;;;;5072879;28;20429;-68
2022/12/02 06:42:35;;;;;;;1999.90;999.90;;;5.00;99.90;;;;;;5072849;28;20759;-68
2022/12/02 06:45:12;;;;;;;1999.90;999.90;;;5.00;99.90;;;;;;5064266;28;20424;-68
2022/12/02 06:47:48;;;;;;;1999.90;999.90;;;5.00;99.90;;;;;;5072490;28;20788;-68
2022/12/02 06:50:27;;;;;;;1999.90;999.90;;;5.00;99.90;;;;;;5075795;28;20400;-69
2022/12/02 06:53:00;;;;;;;1999.90;999.90;;;5.00;99.90;;;;;;5075942;28;20466;-68
2022/12/02 06:55:30;;;;;;;1999.90;999.90;;;5.00;99.90;;;;;;5072639;28;20465;-68
2022/12/02 06:58:01;;;;;;;1999.90;999.90;;;5.10;99.90;;;;;;5072444;28;20390;-68
2022/12/02 07:00:27;;;;;;;1999.90;999.90;;;5.10;99.90;;;;;;5072661;28;20378;-68
2022/12/02 07:02:52;;;;;;;1999.90;999.90;;;5.10;99.90;;;;;;5076167;28;20817;-69
2022/12/02 07:05:20;;;;;;;1999.90;999.90;;;5.00;99.90;;;;;;5072589;28;20527;-68
2022/12/02 07:07:46;;;;;;;1999.90;999.90;;;5.00;99.90;;;;;;5072213;28;20200;-68
2022/12/02 07:10:26;;;;;;;1999.90;999.90;;;5.00;99.90;;;;;;5075294;28;20590;-69
2022/12/02 07:12:52;;;;;;;1999.90;999.90;;;5.00;99.90;;;;;;5054678;28;20269;-68
2022/12/02 07:15:29;;;;;;;1999.90;999.90;;;5.10;99.90;;;;;;5072409;28;20397;-68
2022/12/02 07:18:17;;;;;;;1999.90;999.90;;;5.10;99.90;;;;;;5071973;28;20396;-68
2022/12/02 07:20:45;;;;;;;1999.90;999.90;;;5.10;99.90;;;;;;5072099;28;20402;-68
2022/12/02 07:23:16;;;;;;;1999.90;999.90;;;5.00;99.90;;;;;;5072140;28;20443;-68
2022/12/02 07:25:52;;;;;;;1999.90;999.90;;;5.00;99.90;;;;;;5072209;28;20393;-68
2022/12/02 07:28:33;;;;;;;1999.90;999.90;;;5.00;99.90;;;;;;5071990;28;20501;-68
2022/12/02 07:31:09;;;;;;;1999.90;999.90;;;5.00;99.90;;;;;;5072289;28;20430;-68
2022/12/02 07:33:35;;;;;;;1999.90;999.90;;;5.10;99.90;;;;;;5072022;28;20510;-68
2022/12/02 07:36:00;;;;;;;1999.90;999.90;;;5.10;99.90;;;;;;5071964;28;20455;-68
2022/12/02 07:38:26;;;;;;;1999.90;999.90;;;5.10;99.90;;;;;;5072328;28;20170;-68
2022/12/02 07:40:51;;;;;;;1999.90;999.90;;;5.10;99.90;;;;;;5072052;28;20171;-68
2022/12/02 07:43:17;;;;;;;1999.90;999.90;;;5.10;99.90;;;;;;5071811;28;20190;-68
2022/12/02 07:45:42;;;;;;;1999.90;999.90;;;5.10;99.90;;;;;;5071828;28;20163;-68
2022/12/02 07:48:08;;;;;;;1999.90;999.90;;;5.10;99.90;;;;;;5071657;28;20198;-67
2022/12/02 07:50:34;;;;;;;1999.90;999.90;;;5.10;99.90;;;;;;5071827;28;20167;-68
2022/12/02 07:52:59;;;;;;;1999.90;999.90;;;5.10;99.90;;;;;;5072091;28;20229;-68
2022/12/02 07:55:25;;;;;;;1999.90;999.90;;;5.10;99.90;;;;;;5072044;28;20187;-68
2022/12/02 07:57:51;;;;;;;1999.90;999.90;;;5.10;99.90;;;;;;5074857;28;20209;-69
2022/12/02 08:00:17;;;;;;;1999.90;999.90;;;5.10;99.90;;;;;;5072903;28;20163;-68
2022/12/02 08:02:43;;;;;;;1999.90;999.90;;;5.10;99.90;;;;;;5109859;22;20706;-70
2022/12/02 08:05:10;;;;;;;1999.90;999.90;;;5.10;99.90;;;;;;5052146;28;20411;-69
2022/12/02 08:07:36;;;;;;;1999.90;999.90;;;5.10;99.90;;;;;;5052023;28;20238;-69
2022/12/02 08:10:02;;;;;;;1999.90;999.90;;;5.10;99.90;;;;;;5052365;28;20414;-69
2022/12/02 08:12:28;;;;;;;1999.90;999.90;;;5.10;99.90;;;;;;5052466;28;20218;-69
2022/12/02 08:14:53;;;;;;;1999.90;999.90;;;5.10;99.90;;;;;;5052176;28;20406;-70
2022/12/02 08:17:19;;;;;;;1999.90;999.90;;;5.10;99.90;;;;;;5052025;28;20700;-69
2022/12/02 08:19:44;;;;;;;1999.90;999.90;;;5.10;99.90;;;;;;5051874;28;20257;-69
2022/12/02 08:22:10;;;;;;;1999.90;999.90;;;5.10;99.90;;;;;;5052060;28;20176;-69
2022/12/02 08:24:36;;;;;;;1999.90;999.90;;;5.20;99.90;;;;;;5052185;28;20176;-69
2022/12/02 08:27:01;;;;;;;1999.90;999.90;;;5.20;99.90;;;;;;5051756;28;20625;-70
2022/12/02 08:29:27;;;;;;;1999.90;999.90;;;5.20;99.90;;;;;;5052018;28;20207;-69
2022/12/02 08:31:53;;;;;;;1999.90;999.90;;;5.20;99.90;;;;;;5052071;28;20178;-69
2022/12/02 08:34:18;;;;;;;1999.90;999.90;;;5.20;99.90;;;;;;5051972;28;20426;-69
2022/12/02 08:36:44;;;;;;;1999.90;999.90;;;5.20;99.90;;;;;;5051883;28;20176;-70
2022/12/02 08:39:09;;;;;;;1999.90;999.90;;;5.20;99.90;;;;;;5051822;28;20175;-70
2022/12/02 08:41:36;;;;;;;1999.90;999.90;;;5.10;99.90;;;;;;5051927;28;20179;-69
2022/12/02 08:44:02;;;;;;;1999.90;999.90;;;5.10;99.90;;;;;;5051645;28;20198;-71
2022/12/02 08:46:29;;;;;;;1999.90;999.90;;;5.10;99.90;;;;;;5051133;28;20960;-71
2022/12/02 08:48:54;;;;;;;1999.90;999.90;;;5.20;99.90;;;;;;5050977;28;20394;-71
2022/12/02 08:51:20;;;;;;;1999.90;999.90;;;5.10;99.90;;;;;;5051333;28;20413;-71
2022/12/02 08:53:46;;;;;;;1999.90;999.90;;;5.20;99.90;;;;;;5049958;28;20190;-70
2022/12/02 08:56:12;;;;;;;1999.90;999.90;;;5.20;99.90;;;;;;5053347;28;20452;-70
2022/12/02 08:58:37;;;;;;;1999.90;999.90;;;5.20;99.90;;;;;;5055560;28;20174;-69
2022/12/02 09:01:03;;;;;;;1999.90;999.90;;;5.20;99.90;;;;;;5055571;28;20203;-70
2022/12/02 09:03:29;;;;;;;1999.90;999.90;;;5.20;99.90;;;;;;5060599;22;20274;-70
2022/12/02 09:05:54;;;;;;;1999.90;999.90;;;5.10;99.90;;;;;;5055038;28;20179;-70
2022/12/02 09:08:22;;;;;;;1999.90;999.90;;;5.10;99.90;;;;;;5053767;28;20172;-70
2022/12/02 09:10:48;;;;;;;1999.90;999.90;;;5.10;99.90;;;;;;5054801;28;20676;-70
2022/12/02 09:13:13;;;;;;;1999.90;999.90;;;5.00;99.90;;;;;;5103448;22;20520;-70
2022/12/02 09:15:39;;;;;;;1999.90;999.90;;;5.10;99.90;;;;;;5074341;28;20701;-70
2022/12/02 09:18:05;;;;;;;1999.90;999.90;;;5.00;99.90;;;;;;5074518;28;20182;-69
2022/12/02 09:20:30;;;;;;;1999.90;999.90;;;5.00;99.90;;;;;;5074521;28;20178;-70
2022/12/02 09:22:56;;;;;;;1999.90;999.90;;;5.00;99.90;;;;;;5073893;28;20198;-70
2022/12/02 09:25:21;;;;;;;1999.90;999.90;;;5.00;99.90;;;;;;5074093;28;20644;-69
2022/12/02 09:27:47;;;;;;;1999.90;999.90;;;5.00;99.90;;;;;;5071373;28;20207;-72
2022/12/02 09:30:14;;;;;;;1999.90;999.90;;;5.10;99.90;;;;;;5072802;28;20167;-71
2022/12/02 09:32:39;;;;;;;1999.90;999.90;;;5.00;99.90;;;;;;5073362;28;20209;-71
2022/12/02 09:35:06;;;;;;;1999.90;999.90;;;5.00;99.90;;;;;;5073732;28;20897;-70
2022/12/02 09:37:32;;;;;;;1999.90;999.90;;;5.00;99.90;;;;;;5072352;28;20182;-69
2022/12/02 09:39:58;;;;;;;1999.90;999.90;;;5.00;99.90;;;;;;5073096;28;20864;-69
2022/12/02 09:42:23;;;;;;;1999.90;999.90;;;4.90;99.90;;;;;;5072993;28;20282;-69
2022/12/02 09:44:49;;;;;;;1999.90;999.90;;;5.00;99.90;;;;;;5073222;28;20636;-69
2022/12/02 09:47:17;;;;;;;1999.90;999.90;;;5.00;99.90;;;;;;5072944;28;20543;-71
2022/12/02 09:49:44;;;;;;;1999.90;999.90;;;5.00;99.90;;;;;;5073265;28;20911;-71
2022/12/02 09:52:23;;;;;;;1999.90;999.90;;;5.10;99.90;;;;;;5072485;28;20492;-73
2022/12/02 09:54:50;;;;;;;1999.90;999.90;;;5.10;99.90;;;;;;5073531;28;20411;-71
2022/12/02 09:57:16;;;;;;;1999.90;999.90;;;5.10;99.90;;;;;;5072776;28;20435;-71
2022/12/02 09:59:43;;;;;;;1999.90;999.90;;;5.20;99.90;;;;;;5072968;28;20416;-71
2022/12/02 10:02:36;;;;;;;1999.90;999.90;;;5.20;99.90;;;;;;5073218;28;20411;-71
2022/12/02 10:05:21;;;;;;;1999.90;999.90;;;5.20;99.90;;;;;;5073000;28;20496;-71
2022/12/02 10:07:49;;;;;;;1999.90;999.90;;;5.20;99.90;;;;;;5071909;28;20449;-70
2022/12/02 10:10:18;;;;;;;1999.90;999.90;;;5.30;99.90;;;;;;5073059;28;20496;-70
2022/12/02 10:12:44;;;;;;;1999.90;999.90;;;5.30;99.90;;;;;;5072717;28;20488;-70
2022/12/02 10:15:15;;;;;;;1999.90;999.90;;;5.20;99.90;;;;;;5073438;28;20890;-69
2022/12/02 10:17:44;;;;;;;1999.90;999.90;;;5.10;99.90;;;;;;5074775;28;20167;-69
2022/12/02 10:20:17;;;;;;;1999.90;999.90;;;5.00;99.90;;;;;;5075118;28;20518;-70
2022/12/02 10:23:13;;;;;;;1999.90;999.90;;;5.00;99.90;;;;;;5074719;28;20423;-69
2022/12/02 10:25:42;;;;;;;1999.90;999.90;;;5.00;99.90;;;;;;5073993;28;20409;-70
2022/12/02 10:28:21;;;;;;;1999.90;999.90;;;5.10;99.90;;;;;;5072117;28;20460;-70
2022/12/02 10:30:50;;;;;;;1999.90;999.90;;;5.10;99.90;;;;;;5072719;28;20397;-70
2022/12/02 10:33:15;;;;;;;1999.90;999.90;;;5.10;99.90;;;;;;5073322;28;20425;-70
2022/12/02 10:35:50;;;;;;;1999.90;999.90;;;5.20;99.90;;;;;;5075497;28;20933;-73
2022/12/02 10:38:33;;;;;;;1999.90;999.90;;;5.20;99.90;;;;;;5074431;28;20181;-73
2022/12/02 10:41:14;;;;;;;1999.90;999.90;;;5.20;99.90;;;;;;5072750;28;20942;-73
2022/12/02 10:43:41;;;;;;;1999.90;999.90;;;5.30;99.90;;;;;;5072056;28;20527;-71
2022/12/02 10:46:10;;;;;;;1999.90;999.90;;;5.30;99.90;;;;;;5072169;28;20404;-72
2022/12/02 10:48:36;;;;;;;1999.90;999.90;;;5.30;99.90;;;;;;5072180;28;20472;-70
2022/12/02 10:51:01;;;;;;;1999.90;999.90;;;5.30;99.90;;;;;;5071894;28;20492;-71
2022/12/02 10:53:29;;;;;;;1999.90;999.90;;;5.30;99.90;;;;;;5071940;28;20190;-71
2022/12/02 10:55:55;;;;;;;1999.90;999.90;;;5.20;99.90;;;;;;5071875;28;20163;-71
2022/12/02 10:58:29;;;;;;;1999.90;999.90;;;5.20;99.90;;;;;;5071328;28;20397;-71
2022/12/02 11:00:56;;;;;;;1999.90;999.90;;;5.20;99.90;;;;;;5072276;28;20462;-70
2022/12/02 11:05:58;;;;;;;1999.90;999.90;;;5.30;99.90;;;;;;5155630;22;20489;-70
2022/12/02 11:08:26;;;;;;;1999.90;999.90;;;5.30;99.90;;;;;;5031973;28;20411;-71
2022/12/02 11:11:12;;;;;;;1999.90;999.90;;;5.30;99.90;;;;;;5032211;28;20395;-70
2022/12/02 11:13:47;;;;;;;1999.90;999.90;;;5.30;99.90;;;;;;5031503;28;20974;-70
2022/12/02 11:16:28;;;;;;;1999.90;999.90;;;5.20;99.90;;;;;;5031890;28;20409;-70
2022/12/02 11:19:04;;;;;;;1999.90;999.90;;;5.20;99.90;;;;;;5030144;28;20399;-70
2022/12/02 11:21:29;;;;;;;1999.90;999.90;;;5.30;99.90;;;;;;5031422;28;20395;-70
2022/12/02 11:24:23;;;;;;;1999.90;999.90;;;5.20;99.90;;;;;;5031725;28;20421;-70
2022/12/02 11:27:09;;;;;;;1999.90;999.90;;;5.10;99.90;;;;;;5031593;28;20192;-70
2022/12/02 11:29:42;;;;;;;1999.90;999.90;;;5.20;99.90;;;;;;5031267;28;20778;-69
2022/12/02 11:32:25;;;;;;;1999.90;999.90;;;5.20;99.90;;;;;;5031619;28;20456;-70
2022/12/02 11:34:57;;;;;;;1999.90;999.90;;;5.20;99.90;;;;;;5031261;28;20395;-70
2022/12/02 11:37:26;;;;;;;1999.90;999.90;;;5.20;99.90;;;;;;5031626;28;20999;-70
2022/12/02 11:40:13;;;;;;;1999.90;999.90;;;5.20;99.90;;;;;;5031442;28;20418;-70
2022/12/02 11:42:40;;;;;;;1999.90;999.90;;;5.20;99.90;;;;;;5031116;28;20521;-70
2022/12/02 11:45:15;;;;;;;1999.90;999.90;;;5.20;99.90;;;;;;5031577;28;20410;-70
2022/12/02 11:47:43;;;;;;;1999.90;999.90;;;5.20;99.90;;;;;;5031502;28;20457;-71
2022/12/02 11:50:14;;;;;;;1999.90;999.90;;;5.20;99.90;;;;;;5031113;28;20415;-71
2022/12/02 11:52:49;;;;;;;1999.90;999.90;;;5.20;99.90;;;;;;5030842;28;20426;-71
2022/12/02 11:55:39;;;;;;;1999.90;999.90;;;5.30;99.90;;;;;;5031185;28;20398;-71
2022/12/02 11:58:33;;;;;;;1999.90;999.90;;;5.20;99.90;;;;;;5030635;28;20418;-71
2022/12/02 12:01:13;;;;;;;1999.90;999.90;;;5.10;99.90;;;;;;5031333;28;20787;-71
2022/12/02 12:03:41;;;;;;;1999.90;999.90;;;5.20;99.90;;;;;;5031402;28;20462;-71
2022/12/02 12:06:11;;;;;;;1999.90;999.90;;;5.20;99.90;;;;;;5030621;28;20423;-71
2022/12/02 12:08:41;;;;;;;1999.90;999.90;;;5.10;99.90;;;;;;5031241;28;20782;-71
2022/12/02 12:11:23;;;;;;;1999.90;999.90;;;5.20;99.90;;;;;;5031332;28;20938;-71
2022/12/02 12:13:59;;;;;;;1999.90;999.90;;;5.20;99.90;;;;;;5030481;28;20419;-71
2022/12/02 12:16:24;;;;;;;1999.90;999.90;;;5.20;99.90;;;;;;5031269;28;20425;-71
2022/12/02 12:18:51;;;;;;;1999.90;999.90;;;5.20;99.90;;;;;;5030730;28;20399;-71
2022/12/02 12:21:32;;;;;;;1999.90;999.90;;;5.30;99.90;;;;;;5030671;28;20169;-71